Česky Dansk Deutsch English Español Suomi Français Magyar Italiano Nederlands norsk Polski Português svenska Türkçe

 

Het Weer

Ouargla (Algeria)

18:00, 18 augustus 2016 (GMT)

 
WE
 
Home            
Ouargla Hassi-Messaoud Touggourt Ghardaia El Oued Tilrempt/Hassi R'mel El Golea Laghouat Biskra Tozeur El Borma Djelfa Bou-Saada Batna Gafsa Ghadames Tebessa Remada Setif Gabes Constantine Tiaret Bejaia

Om een weerknop op uw website of weblog te plaatsen, copieer onderstaande code en plak die in uw pagina. In het eerste vakje staat HTML-code, in het tweede vakje UBB-code.


Add to Google

Details

Wind speed:2 bf, 4 kn, 2.1 m/s, 4.6 miles/h, 7.4 km/h
Wind direction:NNW, 330°
Visibility: 6000 m, 6.0 km, 19685 ft, 3.7 miles
Temperature:41°C, 106°F
Gefühlte Temperatur:38°C, 101°F
Dew-point:6°C, 43°F
Atmospheric pressure:1008 hPa, 756.1 mmHg, 29.77 inHg, 0.995 atm
Relative humidity:12.0 %
METAR:DAUU 181800Z 33004KT 6000 NSC 41/06 Q1008

Snelkoppelingen

Actuele weersinformatie van de hele wereld. Voeg locaties toe met het plus (+) symbool. Deze snelkoppelingen kunnen worden toegevoegd aan Google.

Lid van de Technetium groep

website free tracking
StatCounter NetStat W3C Validator

07-10-2022 03:09:19
astro.technetium.be money.technetium.be phote.technetium.be tafeltennistafel.technetium.be www.ligfiets.net